Aviation Digital Data Service (ADDS)

Output produced by METARs form (0556 UTC 24 May 2017)
found at http://aviationweather.gov/adds/metars/
 
KMFD 240524Z 2406/2506 12005KT P6SM VCSH OVC040 
     FM241000 12008KT P6SM OVC070 
     FM241800 12010KT P6SM -SHRA OVC035 
     FM242000 11010KT 5SM -SHRA OVC025 
     FM250000 08012KT 3SM -SHRA OVC008